Inverness, CA

5:18 AM PDT on September 02, 2014 (GMT -0700)
Marin County DPW Corporation Yard | Change Station
CLOSE
Current Station
Personal Weather Station
Location: Nicasio, CA
Elevation: 443 ft
Nearby Weather Stations

Elev 443 ft 38.07 °N, 122.70 °W | Updated 8 minutes ago

Clear
Clear
56.2 °F
Feels Like 56.2 °F
N
0.0
Wind Variable Wind from NW
Gusts 3.0 mph

Today
High -- | Low -- °F
--% Chance of Precip.
Yesterday
High -- | Low -- °F
Precip. -- in
6:42 AM 7:39 PM
Waxing Crescent, 51% visible
Pressure 29.78 in
Visibility 8.0 miles
Clouds Few 200 ft
Dew Point 56 °F
Humidity 100%
Rainfall 0.00 in
Snow Depth Not available.
UV 0 out of 12
Pollen 7.30 out of 12
Air Quality Not available.
Flu Activity Not available.
SPECI KSTS 021211Z AUTO 00000KT 8SM FEW002 12/11 A2978 RMK AO2

More Conditions Fewer Conditions

Pressure 29.78 in
Visibility 8.0 miles
Clouds Few 200 ft
Dew Point 56 °F
Humidity 100%
Rainfall 0.00 in
Snow Depth Not available.
UV 0 out of 12
Pollen 7.30 out of 12
Air Quality Not available.
Flu Activity Not available.
SPECI KSTS 021211Z AUTO 00000KT 8SM FEW002 12/11 A2978 RMK AO2

More Conditions Fewer Conditions

10-Day Weather Forecast

Almanac

Astronomy

Sep. 02, 2014 Rise Set
Actual Time 6:42 AM PDT 7:39 PM PDT
Civil Twilight 6:15 AM PDT 8:06 PM PDT
Nautical Twilight 5:43 AM PDT 8:38 PM PDT
Astronomical Twilight 5:10 AM PDT 9:11 PM PDT
Moon 2:25 PM PDT No Moon Set
Length of Visible Light 13h 51m
Length of Day
12h 57m
Tomorrow will be 2m 22s shorter.
Waxing Crescent, 51% of the Moon is Illuminated
Today
Waxing Crescent
Sep 8
Full
Sep 15
Last Quarter
Sep 24
New
Oct 1
First Quarter

Today's Extremes

State Highs State Lows

Community

WunderPhotos

Upload Photos

1,749,638 photos uploaded!

WunderBlogs® & News

By Dr. Jeff Masters
Director of Meteorology, Weather Underground
By Kari Strenfel
Meteorologist, Weather Underground
By Christopher C. Burt
Weather Historian, Weather Underground
September 2, 2014
September 2, 2014
September 2, 2014

Nearby

Snow Depth

Station Depth Elevation
CSS Lab 2 in 6900 ft
Echo Peak 0 in 7800 ft
Rubicon #2 0 in 7500 ft
Forestdale Creek 0 in 8029 ft
Fallen Leaf 0 in 6300 ft

Earthquake Activity

City Distance Mag. Time & Date
Yountville, California 30 miles 2.6 1:15 PM PDT
2014-09-01
Gilroy, California 108 miles 3.5 9:10 AM PDT
2014-09-01
Green Valley, California 39 miles 2.5 6:37 AM PDT
2014-08-31
Napa, California 29 miles 3.2 1:56 AM PDT
2014-08-31
Minimum magnitude displayed is 2.5.

Coastal Water Temperatures

Place Temperature
Point Reyes, CA 57.9 °F
Arena Cove, CA 53.1 °F
San Francisco, CA 66.0 °F
Richmond, CA 68.0 °F

Nearby Weather Stations